createdAt,value
2017-12-22T22:18:50.961Z,1026.42
2017-12-22T22:19:50.870Z,1026.39
2017-12-22T22:21:42.605Z,1026.41
2017-12-22T22:22:42.608Z,1026.40
2017-12-22T22:24:34.336Z,1026.34
2017-12-22T22:25:34.266Z,1026.38
2017-12-22T22:27:26.104Z,1026.36
2017-12-22T22:28:26.003Z,1026.41
2017-12-22T22:30:17.909Z,1026.46
2017-12-22T22:31:17.930Z,1026.40
2017-12-22T22:33:09.600Z,1026.45
2017-12-22T22:34:09.556Z,1026.45
2017-12-22T22:36:01.287Z,1026.49
2017-12-22T22:37:01.242Z,1026.47
2017-12-22T22:38:52.992Z,1026.51
2017-12-22T22:39:52.913Z,1026.50
2017-12-22T22:41:44.686Z,1026.48
2017-12-22T22:42:44.645Z,1026.49
2017-12-22T22:44:37.188Z,1026.47
2017-12-22T22:45:36.983Z,1026.41
2017-12-22T22:47:28.697Z,1026.40
2017-12-22T22:48:28.480Z,1026.37
2017-12-22T22:50:20.219Z,1026.24
2017-12-22T22:51:20.134Z,1026.28
2017-12-22T22:53:11.970Z,1026.18
2017-12-22T22:54:12.009Z,1026.21
2017-12-22T22:56:04.092Z,1026.25
2017-12-22T22:57:03.996Z,1026.16
2017-12-22T22:58:55.794Z,1026.18
2017-12-22T22:59:56.094Z,1026.18
2017-12-22T23:01:47.470Z,1026.22
2017-12-22T23:02:47.423Z,1026.22
2017-12-22T23:04:41.427Z,1026.31
2017-12-22T23:05:40.730Z,1026.29
2017-12-22T23:07:32.538Z,1026.34
2017-12-22T23:08:32.391Z,1026.26
2017-12-22T23:10:24.265Z,1026.31
2017-12-22T23:11:24.101Z,1026.33
2017-12-22T23:13:16.744Z,1026.31
2017-12-22T23:14:16.550Z,1026.34
2017-12-22T23:16:08.634Z,1026.31
2017-12-22T23:17:08.312Z,1026.32
2017-12-22T23:19:00.112Z,1026.33
2017-12-22T23:19:59.961Z,1026.30
2017-12-22T23:21:51.911Z,1026.30
2017-12-22T23:22:51.699Z,1026.28
2017-12-22T23:24:43.837Z,1026.27
2017-12-22T23:25:43.586Z,1026.25
2017-12-22T23:27:35.268Z,1026.23
2017-12-22T23:28:35.764Z,1026.20
2017-12-22T23:30:27.548Z,1026.12
2017-12-22T23:31:27.493Z,1026.11
2017-12-22T23:33:19.193Z,1026.07
2017-12-22T23:34:19.253Z,1026.07
2017-12-22T23:36:10.965Z,1025.98
2017-12-22T23:37:10.912Z,1025.98
2017-12-22T23:39:02.654Z,1025.93
2017-12-22T23:40:02.659Z,1025.88
2017-12-22T23:41:54.379Z,1025.90
2017-12-22T23:42:54.316Z,1025.95
2017-12-22T23:44:46.058Z,1025.92
2017-12-22T23:45:45.990Z,1025.92
2017-12-22T23:47:37.791Z,1025.93
2017-12-22T23:48:37.712Z,1025.86
2017-12-22T23:50:31.589Z,1025.81
2017-12-22T23:51:29.680Z,1025.80
2017-12-22T23:53:21.526Z,1025.75
2017-12-22T23:54:21.274Z,1025.64
2017-12-22T23:56:13.478Z,1025.66
2017-12-22T23:57:12.920Z,1025.73
2017-12-22T23:59:05.478Z,1025.76
